sensor_id;sensor_type;location;lat;lon;timestamp;pressure;altitude;pressure_sealevel;temperature;humidity
7052;BME280;3567;52.444;13.556;2024-01-30T00:01:18;102556.84;;;-0.87;100.00
7052;BME280;3567;52.444;13.556;2024-01-30T00:03:43;102554.34;;;-0.89;100.00
7052;BME280;3567;52.444;13.556;2024-01-30T00:06:09;102549.19;;;-0.90;100.00
7052;BME280;3567;52.444;13.556;2024-01-30T00:08:34;102552.75;;;-0.91;100.00
7052;BME280;3567;52.444;13.556;2024-01-30T00:10:59;102553.59;;;-0.91;100.00
7052;BME280;3567;52.444;13.556;2024-01-30T00:13:26;102555.50;;;-0.93;100.00
7052;BME280;3567;52.444;13.556;2024-01-30T00:15:51;102553.94;;;-0.95;100.00
7052;BME280;3567;52.444;13.556;2024-01-30T00:18:16;102555.81;;;-0.97;100.00
7052;BME280;3567;52.444;13.556;2024-01-30T00:20:42;102557.72;;;-0.99;100.00
7052;BME280;3567;52.444;13.556;2024-01-30T00:23:08;102563.13;;;-1.01;100.00
7052;BME280;3567;52.444;13.556;2024-01-30T00:25:33;102556.25;;;-1.03;100.00
7052;BME280;3567;52.444;13.556;2024-01-30T00:27:59;102557.41;;;-1.08;100.00
7052;BME280;3567;52.444;13.556;2024-01-30T00:30:24;102560.88;;;-1.07;100.00
7052;BME280;3567;52.444;13.556;2024-01-30T00:32:49;102556.47;;;-1.07;100.00
7052;BME280;3567;52.444;13.556;2024-01-30T00:35:15;102556.47;;;-1.07;100.00
7052;BME280;3567;52.444;13.556;2024-01-30T00:37:40;102550.38;;;-1.07;100.00
7052;BME280;3567;52.444;13.556;2024-01-30T00:40:06;102556.47;;;-1.07;100.00
7052;BME280;3567;52.444;13.556;2024-01-30T00:42:31;102554.06;;;-1.10;100.00
7052;BME280;3567;52.444;13.556;2024-01-30T00:44:57;102549.00;;;-1.13;100.00
7052;BME280;3567;52.444;13.556;2024-01-30T00:47:23;102550.91;;;-1.15;100.00
7052;BME280;3567;52.444;13.556;2024-01-30T00:49:48;102549.13;;;-1.14;100.00
7052;BME280;3567;52.444;13.556;2024-01-30T00:52:13;102548.28;;;-1.15;100.00
7052;BME280;3567;52.444;13.556;2024-01-30T00:54:39;102555.22;;;-1.14;100.00
7052;BME280;3567;52.444;13.556;2024-01-30T00:57:04;102555.22;;;-1.14;100.00
7052;BME280;3567;52.444;13.556;2024-01-30T00:59:29;102553.53;;;-1.15;100.00
7052;BME280;3567;52.444;13.556;2024-01-30T01:01:55;102550.19;;;-1.17;100.00
7052;BME280;3567;52.444;13.556;2024-01-30T01:04:20;102558.94;;;-1.16;100.00
7052;BME280;3567;52.444;13.556;2024-01-30T01:06:47;102561.63;;;-1.18;100.00
7052;BME280;3567;52.444;13.556;2024-01-30T01:09:12;102556.59;;;-1.21;100.00
7052;BME280;3567;52.444;13.556;2024-01-30T01:11:37;102552.50;;;-1.25;100.00
7052;BME280;3567;52.444;13.556;2024-01-30T01:14:04;102556.81;;;-1.24;100.00
7052;BME280;3567;52.444;13.556;2024-01-30T01:16:29;102556.81;;;-1.24;100.00
7052;BME280;3567;52.444;13.556;2024-01-30T01:18:55;102554.19;;;-1.24;100.00
7052;BME280;3567;52.444;13.556;2024-01-30T01:21:20;102556.09;;;-1.26;100.00
7052;BME280;3567;52.444;13.556;2024-01-30T01:23:45;102551.78;;;-1.27;100.00
7052;BME280;3567;52.444;13.556;2024-01-30T01:26:11;102554.63;;;-1.30;100.00
7052;BME280;3567;52.444;13.556;2024-01-30T01:28:36;102553.88;;;-1.32;100.00
7052;BME280;3567;52.444;13.556;2024-01-30T01:31:02;102558.41;;;-1.34;100.00
7052;BME280;3567;52.444;13.556;2024-01-30T01:33:31;102541.06;;;-1.37;100.00
7052;BME280;3567;52.444;13.556;2024-01-30T01:35:58;102545.56;;;-1.39;100.00
7052;BME280;3567;52.444;13.556;2024-01-30T01:38:23;102549.97;;;-1.39;100.00
7052;BME280;3567;52.444;13.556;2024-01-30T01:40:49;102545.56;;;-1.39;100.00
7052;BME280;3567;52.444;13.556;2024-01-30T01:43:14;102553.69;;;-1.42;100.00
7052;BME280;3567;52.444;13.556;2024-01-30T01:45:39;102545.91;;;-1.43;100.00
7052;BME280;3567;52.444;13.556;2024-01-30T01:48:05;102547.69;;;-1.44;100.00
7052;BME280;3567;52.444;13.556;2024-01-30T01:50:31;102542.44;;;-1.44;100.00
7052;BME280;3567;52.444;13.556;2024-01-30T01:52:58;102541.50;;;-1.43;100.00
7052;BME280;3567;52.444;13.556;2024-01-30T01:55:24;102543.47;;;-1.46;100.00
7052;BME280;3567;52.444;13.556;2024-01-30T01:57:52;102537.38;;;-1.47;100.00
7052;BME280;3567;52.444;13.556;2024-01-30T02:00:18;102534.13;;;-1.50;100.00
7052;BME280;3567;52.444;13.556;2024-01-30T02:02:45;102531.50;;;-1.50;100.00
7052;BME280;3567;52.444;13.556;2024-01-30T02:05:12;102532.25;;;-1.48;100.00
7052;BME280;3567;52.444;13.556;2024-01-30T02:07:37;102538.41;;;-1.49;100.00
7052;BME280;3567;52.444;13.556;2024-01-30T02:10:03;102536.75;;;-1.50;100.00
7052;BME280;3567;52.444;13.556;2024-01-30T02:12:29;102534.94;;;-1.50;100.00
7052;BME280;3567;52.444;13.556;2024-01-30T02:14:54;102538.66;;;-1.52;100.00
7052;BME280;3567;52.444;13.556;2024-01-30T02:17:20;102539.59;;;-1.53;100.00
7052;BME280;3567;52.444;13.556;2024-01-30T02:19:46;102544.09;;;-1.55;100.00
7052;BME280;3567;52.444;13.556;2024-01-30T02:22:11;102538.84;;;-1.55;100.00
7052;BME280;3567;52.444;13.556;2024-01-30T02:24:37;102534.53;;;-1.56;100.00
7052;BME280;3567;52.444;13.556;2024-01-30T02:27:02;102532.66;;;-1.54;100.00
7052;BME280;3567;52.444;13.556;2024-01-30T02:29:28;102542.22;;;-1.53;100.00
7052;BME280;3567;52.444;13.556;2024-01-30T02:31:53;102536.03;;;-1.52;100.00
7052;BME280;3567;52.444;13.556;2024-01-30T02:34:19;102540.44;;;-1.53;100.00
7052;BME280;3567;52.444;13.556;2024-01-30T02:36:45;102539.59;;;-1.53;100.00
7052;BME280;3567;52.444;13.556;2024-01-30T02:39:10;102531.59;;;-1.52;100.00
7052;BME280;3567;52.444;13.556;2024-01-30T02:41:36;102528.97;;;-1.52;100.00
7052;BME280;3567;52.444;13.556;2024-01-30T02:44:02;102534.13;;;-1.50;100.00
7052;BME280;3567;52.444;13.556;2024-01-30T02:46:28;102534.94;;;-1.50;100.00
7052;BME280;3567;52.444;13.556;2024-01-30T02:48:53;102531.50;;;-1.50;100.00
7052;BME280;3567;52.444;13.556;2024-01-30T02:51:18;102532.31;;;-1.50;100.00
7052;BME280;3567;52.444;13.556;2024-01-30T02:53:44;102534.88;;;-1.48;100.00
7052;BME280;3567;52.444;13.556;2024-01-30T02:56:09;102531.06;;;-1.44;100.00
7052;BME280;3567;52.444;13.556;2024-01-30T02:58:38;102533.59;;;-1.43;100.00
7052;BME280;3567;52.444;13.556;2024-01-30T03:01:04;102531.81;;;-1.42;100.00
7052;BME280;3567;52.444;13.556;2024-01-30T03:03:29;102530.88;;;-1.41;100.00
7052;BME280;3567;52.444;13.556;2024-01-30T03:05:54;102525.50;;;-1.40;100.00
7052;BME280;3567;52.444;13.556;2024-01-30T03:08:20;102522.78;;;-1.38;100.00
7052;BME280;3567;52.444;13.556;2024-01-30T03:10:46;102524.53;;;-1.39;100.00
7052;BME280;3567;52.444;13.556;2024-01-30T03:13:11;102524.53;;;-1.39;100.00
7052;BME280;3567;52.444;13.556;2024-01-30T03:15:37;102514.78;;;-1.37;100.00
7052;BME280;3567;52.444;13.556;2024-01-30T03:18:02;102516.56;;;-1.37;100.00
7052;BME280;3567;52.444;13.556;2024-01-30T03:20:31;102514.78;;;-1.37;100.00
7052;BME280;3567;52.444;13.556;2024-01-30T03:22:56;102514.66;;;-1.35;100.00
7052;BME280;3567;52.444;13.556;2024-01-30T03:25:22;102511.06;;;-1.34;100.00
7052;BME280;3567;52.444;13.556;2024-01-30T03:27:47;102507.72;;;-1.36;100.00
7052;BME280;3567;52.444;13.556;2024-01-30T03:30:13;102501.75;;;-1.38;100.00
7052;BME280;3567;52.444;13.556;2024-01-30T03:32:38;102506.13;;;-1.39;100.00
7052;BME280;3567;52.444;13.556;2024-01-30T03:35:03;102498.47;;;-1.42;100.00
7052;BME280;3567;52.444;13.556;2024-01-30T03:37:29;102510.66;;;-1.41;100.00
7052;BME280;3567;52.444;13.556;2024-01-30T03:39:55;102507.94;;;-1.39;100.00
7052;BME280;3567;52.444;13.556;2024-01-30T03:42:20;102502.66;;;-1.39;100.00
7052;BME280;3567;52.444;13.556;2024-01-30T03:44:46;102511.31;;;-1.37;100.00
7052;BME280;3567;52.444;13.556;2024-01-30T03:47:11;102502.47;;;-1.36;100.00
7052;BME280;3567;52.444;13.556;2024-01-30T03:49:36;102508.69;;;-1.37;100.00
7052;BME280;3567;52.444;13.556;2024-01-30T03:52:02;102509.63;;;-1.38;100.00
7052;BME280;3567;52.444;13.556;2024-01-30T03:54:27;102501.00;;;-1.40;100.00
7052;BME280;3567;52.444;13.556;2024-01-30T03:56:53;102499.31;;;-1.41;100.00
7052;BME280;3567;52.444;13.556;2024-01-30T03:59:18;102502.06;;;-1.43;100.00
7052;BME280;3567;52.444;13.556;2024-01-30T04:01:49;102502.91;;;-1.42;100.00
7052;BME280;3567;52.444;13.556;2024-01-30T04:04:14;102501.22;;;-1.43;100.00
7052;BME280;3567;52.444;13.556;2024-01-30T04:06:40;102501.22;;;-1.43;100.00
7052;BME280;3567;52.444;13.556;2024-01-30T04:09:06;102504.56;;;-1.41;100.00
7052;BME280;3567;52.444;13.556;2024-01-30T04:11:32;102504.69;;;-1.43;100.00
7052;BME280;3567;52.444;13.556;2024-01-30T04:13:58;102510.91;;;-1.44;100.00
7052;BME280;3567;52.444;13.556;2024-01-30T04:16:24;102514.56;;;-1.46;100.00
7052;BME280;3567;52.444;13.556;2024-01-30T04:18:51;102509.44;;;-1.48;100.00
7052;BME280;3567;52.444;13.556;2024-01-30T04:21:16;102514.69;;;-1.48;100.00
7052;BME280;3567;52.444;13.556;2024-01-30T04:23:42;102510.25;;;-1.47;100.00
7052;BME280;3567;52.444;13.556;2024-01-30T04:26:07;102515.63;;;-1.49;100.00
7052;BME280;3567;52.444;13.556;2024-01-30T04:28:33;102515.72;;;-1.50;100.00
7052;BME280;3567;52.444;13.556;2024-01-30T04:30:58;102505.22;;;-1.50;100.00
7052;BME280;3567;52.444;13.556;2024-01-30T04:33:23;102510.47;;;-1.50;100.00
7052;BME280;3567;52.444;13.556;2024-01-30T04:35:49;102515.72;;;-1.50;100.00
7052;BME280;3567;52.444;13.556;2024-01-30T04:38:14;102512.13;;;-1.49;100.00
7052;BME280;3567;52.444;13.556;2024-01-30T04:40:40;102508.59;;;-1.48;100.00
7052;BME280;3567;52.444;13.556;2024-01-30T04:43:05;102510.25;;;-1.47;100.00
7052;BME280;3567;52.444;13.556;2024-01-30T04:45:31;102497.97;;;-1.47;100.00
7052;BME280;3567;52.444;13.556;2024-01-30T04:47:56;102497.84;;;-1.45;100.00
7052;BME280;3567;52.444;13.556;2024-01-30T04:50:21;102491.75;;;-1.46;100.00
7052;BME280;3567;52.444;13.556;2024-01-30T04:52:47;102506.78;;;-1.48;100.00
7052;BME280;3567;52.444;13.556;2024-01-30T04:55:12;102492.81;;;-1.48;100.00
7052;BME280;3567;52.444;13.556;2024-01-30T04:57:37;102498.06;;;-1.48;100.00
7052;BME280;3567;52.444;13.556;2024-01-30T05:00:03;102492.81;;;-1.48;100.00
7052;BME280;3567;52.444;13.556;2024-01-30T05:02:28;102492.06;;;-1.50;100.00
7052;BME280;3567;52.444;13.556;2024-01-30T05:04:54;102497.25;;;-1.49;100.00
7052;BME280;3567;52.444;13.556;2024-01-30T05:07:19;102497.00;;;-1.46;100.00
7052;BME280;3567;52.444;13.556;2024-01-30T05:09:45;102498.69;;;-1.45;100.00
7052;BME280;3567;52.444;13.556;2024-01-30T05:12:10;102499.53;;;-1.44;100.00
7052;BME280;3567;52.444;13.556;2024-01-30T05:14:35;102497.00;;;-1.46;100.00
7052;BME280;3567;52.444;13.556;2024-01-30T05:17:01;102501.44;;;-1.46;100.00
7052;BME280;3567;52.444;13.556;2024-01-30T05:19:28;102503.09;;;-1.45;100.00
7052;BME280;3567;52.444;13.556;2024-01-30T05:21:53;102502.16;;;-1.44;100.00
7052;BME280;3567;52.444;13.556;2024-01-30T05:24:18;102496.06;;;-1.45;100.00
7052;BME280;3567;52.444;13.556;2024-01-30T05:26:44;102498.59;;;-1.43;100.00
7052;BME280;3567;52.444;13.556;2024-01-30T05:29:09;102499.31;;;-1.41;100.00
7052;BME280;3567;52.444;13.556;2024-01-30T05:31:34;102499.31;;;-1.41;100.00
7052;BME280;3567;52.444;13.556;2024-01-30T05:34:00;102497.84;;;-1.45;100.00
7052;BME280;3567;52.444;13.556;2024-01-30T05:36:25;102504.78;;;-1.44;100.00
7052;BME280;3567;52.444;13.556;2024-01-30T05:38:51;102495.97;;;-1.43;100.00
7052;BME280;3567;52.444;13.556;2024-01-30T05:41:16;102501.00;;;-1.40;100.00
7052;BME280;3567;52.444;13.556;2024-01-30T05:43:42;102499.31;;;-1.41;100.00
7052;BME280;3567;52.444;13.556;2024-01-30T05:46:07;102494.06;;;-1.41;100.00
7052;BME280;3567;52.444;13.556;2024-01-30T05:48:32;102493.09;;;-1.40;100.00
7052;BME280;3567;52.444;13.556;2024-01-30T05:50:58;102490.47;;;-1.40;100.00
7052;BME280;3567;52.444;13.556;2024-01-30T05:53:25;102485.97;;;-1.38;100.00
7052;BME280;3567;52.444;13.556;2024-01-30T05:55:50;102498.16;;;-1.37;100.00
7052;BME280;3567;52.444;13.556;2024-01-30T05:58:15;102494.59;;;-1.36;100.00
7052;BME280;3567;52.444;13.556;2024-01-30T06:00:41;102491.94;;;-1.36;100.00
7052;BME280;3567;52.444;13.556;2024-01-30T06:03:07;102491.75;;;-1.33;100.00
7052;BME280;3567;52.444;13.556;2024-01-30T06:05:32;102489.41;;;-1.25;100.00
7052;BME280;3567;52.444;13.556;2024-01-30T06:07:58;102483.94;;;-1.22;100.00
7052;BME280;3567;52.444;13.556;2024-01-30T06:10:23;102491.47;;;-1.17;100.00
7052;BME280;3567;52.444;13.556;2024-01-30T06:12:48;102488.84;;;-1.17;100.00
7052;BME280;3567;52.444;13.556;2024-01-30T06:15:14;102485.38;;;-1.18;100.00
7052;BME280;3567;52.444;13.556;2024-01-30T06:17:39;102487.09;;;-1.17;100.00
7052;BME280;3567;52.444;13.556;2024-01-30T06:20:05;102480.97;;;-1.17;100.00
7052;BME280;3567;52.444;13.556;2024-01-30T06:22:31;102485.63;;;-1.21;100.00
7052;BME280;3567;52.444;13.556;2024-01-30T06:24:56;102486.78;;;-1.25;100.00
7052;BME280;3567;52.444;13.556;2024-01-30T06:27:22;102483.44;;;-1.27;100.00
7052;BME280;3567;52.444;13.556;2024-01-30T06:29:47;102484.47;;;-1.29;100.00
7052;BME280;3567;52.444;13.556;2024-01-30T06:32:12;102486.25;;;-1.30;100.00
7052;BME280;3567;52.444;13.556;2024-01-30T06:34:38;102483.00;;;-1.34;100.00
7052;BME280;3567;52.444;13.556;2024-01-30T06:37:05;102481.22;;;-1.33;100.00
7052;BME280;3567;52.444;13.556;2024-01-30T06:39:30;102483.13;;;-1.35;100.00
7052;BME280;3567;52.444;13.556;2024-01-30T06:41:56;102480.38;;;-1.34;100.00
7052;BME280;3567;52.444;13.556;2024-01-30T06:44:21;102483.75;;;-1.32;100.00
7052;BME280;3567;52.444;13.556;2024-01-30T06:46:47;102481.00;;;-1.30;100.00
7052;BME280;3567;52.444;13.556;2024-01-30T06:49:12;102478.38;;;-1.30;100.00
7052;BME280;3567;52.444;13.556;2024-01-30T06:51:37;102483.50;;;-1.28;100.00
7052;BME280;3567;52.444;13.556;2024-01-30T06:54:03;102483.50;;;-1.28;100.00
7052;BME280;3567;52.444;13.556;2024-01-30T06:56:29;102482.69;;;-1.29;100.00
7052;BME280;3567;52.444;13.556;2024-01-30T06:58:55;102482.69;;;-1.29;100.00
7052;BME280;3567;52.444;13.556;2024-01-30T07:01:20;102480.03;;;-1.29;100.00
7052;BME280;3567;52.444;13.556;2024-01-30T07:03:46;102486.97;;;-1.28;100.00
7052;BME280;3567;52.444;13.556;2024-01-30T07:06:11;102486.56;;;-1.22;100.00
7052;BME280;3567;52.444;13.556;2024-01-30T07:08:37;102492.00;;;-1.12;100.00
7052;BME280;3567;52.444;13.556;2024-01-30T07:11:06;102486.66;;;-1.11;100.00
7052;BME280;3567;52.444;13.556;2024-01-30T07:13:34;102490.00;;;-1.09;100.00
7052;BME280;3567;52.444;13.556;2024-01-30T07:15:59;102484.81;;;-0.97;100.00
7052;BME280;3567;52.444;13.556;2024-01-30T07:18:24;102487.28;;;-0.83;100.00
7052;BME280;3567;52.444;13.556;2024-01-30T07:20:50;102487.84;;;-0.67;100.00
7052;BME280;3567;52.444;13.556;2024-01-30T07:23:16;102488.84;;;-0.57;100.00
7052;BME280;3567;52.444;13.556;2024-01-30T07:25:46;102484.63;;;-0.59;100.00
7052;BME280;3567;52.444;13.556;2024-01-30T07:28:14;102475.69;;;-0.57;100.00
7052;BME280;3567;52.444;13.556;2024-01-30T07:30:42;102473.44;;;-0.50;100.00
7052;BME280;3567;52.444;13.556;2024-01-30T07:33:08;102481.38;;;-0.39;100.00
7052;BME280;3567;52.444;13.556;2024-01-30T07:35:34;102478.69;;;-0.26;100.00
7052;BME280;3567;52.444;13.556;2024-01-30T07:37:59;102481.56;;;-0.18;100.00
7052;BME280;3567;52.444;13.556;2024-01-30T07:40:24;102474.41;;;-0.16;100.00
7052;BME280;3567;52.444;13.556;2024-01-30T07:42:50;102473.44;;;-0.15;100.00
7052;BME280;3567;52.444;13.556;2024-01-30T07:45:15;102468.91;;;-0.13;100.00
7052;BME280;3567;52.444;13.556;2024-01-30T07:47:41;102470.50;;;0.01;100.00
7052;BME280;3567;52.444;13.556;2024-01-30T07:50:07;102474.69;;;0.15;100.00
7052;BME280;3567;52.444;13.556;2024-01-30T07:52:33;102471.63;;;0.32;100.00
7052;BME280;3567;52.444;13.556;2024-01-30T07:54:58;102469.56;;;0.47;100.00
7052;BME280;3567;52.444;13.556;2024-01-30T07:57:24;102476.13;;;0.64;100.00
7052;BME280;3567;52.444;13.556;2024-01-30T07:59:50;102466.81;;;0.71;100.00
7052;BME280;3567;52.444;13.556;2024-01-30T08:02:15;102468.94;;;0.77;100.00
7052;BME280;3567;52.444;13.556;2024-01-30T08:04:40;102479.34;;;0.90;100.00
7052;BME280;3567;52.444;13.556;2024-01-30T08:07:06;102468.66;;;1.02;100.00
7052;BME280;3567;52.444;13.556;2024-01-30T08:09:31;102473.78;;;1.15;100.00
7052;BME280;3567;52.444;13.556;2024-01-30T08:11:57;102464.03;;;1.27;100.00
7052;BME280;3567;52.444;13.556;2024-01-30T08:14:22;102469.25;;;1.38;100.00
7052;BME280;3567;52.444;13.556;2024-01-30T08:16:48;102462.16;;;1.50;100.00
7052;BME280;3567;52.444;13.556;2024-01-30T08:19:14;102467.25;;;1.63;100.00
7052;BME280;3567;52.444;13.556;2024-01-30T08:21:39;102471.63;;;1.73;100.00
7052;BME280;3567;52.444;13.556;2024-01-30T08:24:05;102465.69;;;1.81;100.00
7052;BME280;3567;52.444;13.556;2024-01-30T08:26:31;102469.97;;;1.93;100.00
7052;BME280;3567;52.444;13.556;2024-01-30T08:28:57;102470.59;;;2.06;100.00
7052;BME280;3567;52.444;13.556;2024-01-30T08:31:22;102471.94;;;2.22;100.00
7052;BME280;3567;52.444;13.556;2024-01-30T08:33:48;102471.84;;;2.33;100.00
7052;BME280;3567;52.444;13.556;2024-01-30T08:36:14;102466.38;;;2.46;100.00
7052;BME280;3567;52.444;13.556;2024-01-30T08:38:39;102452.31;;;2.55;100.00
7052;BME280;3567;52.444;13.556;2024-01-30T08:41:04;102448.28;;;2.60;100.00
7052;BME280;3567;52.444;13.556;2024-01-30T08:43:30;102438.56;;;2.71;100.00
7052;BME280;3567;52.444;13.556;2024-01-30T08:45:59;102444.88;;;2.79;100.00
7052;BME280;3567;52.444;13.556;2024-01-30T08:48:24;102453.69;;;2.89;100.00
7052;BME280;3567;52.444;13.556;2024-01-30T08:50:50;102447.56;;;2.99;100.00
7052;BME280;3567;52.444;13.556;2024-01-30T08:53:15;102435.59;;;3.04;100.00
7052;BME280;3567;52.444;13.556;2024-01-30T08:55:41;102442.84;;;3.12;100.00
7052;BME280;3567;52.444;13.556;2024-01-30T08:58:06;102443.84;;;3.21;100.00
7052;BME280;3567;52.444;13.556;2024-01-30T09:00:31;102445.94;;;3.27;100.00
7052;BME280;3567;52.444;13.556;2024-01-30T09:02:57;102449.28;;;3.38;100.00
7052;BME280;3567;52.444;13.556;2024-01-30T09:05:22;102458.31;;;3.55;100.00
7052;BME280;3567;52.444;13.556;2024-01-30T09:07:47;102451.34;;;3.74;100.00
7052;BME280;3567;52.444;13.556;2024-01-30T09:10:13;102450.63;;;3.91;100.00
7052;BME280;3567;52.444;13.556;2024-01-30T09:12:38;102449.19;;;4.06;100.00
7052;BME280;3567;52.444;13.556;2024-01-30T09:15:04;102446.06;;;4.20;97.79
7052;BME280;3567;52.444;13.556;2024-01-30T09:17:30;102445.75;;;4.33;96.86
7052;BME280;3567;52.444;13.556;2024-01-30T09:19:55;102441.09;;;4.45;96.25
7052;BME280;3567;52.444;13.556;2024-01-30T09:22:21;102445.38;;;4.56;95.32
7052;BME280;3567;52.444;13.556;2024-01-30T09:24:46;102446.72;;;4.69;94.97
7052;BME280;3567;52.444;13.556;2024-01-30T09:27:12;102451.66;;;4.82;93.52
7052;BME280;3567;52.444;13.556;2024-01-30T09:29:37;102454.25;;;4.92;93.23
7052;BME280;3567;52.444;13.556;2024-01-30T09:32:03;102457.69;;;5.02;91.39
7052;BME280;3567;52.444;13.556;2024-01-30T09:34:29;102452.31;;;5.12;90.93
7052;BME280;3567;52.444;13.556;2024-01-30T09:36:54;102453.94;;;5.22;89.77
7052;BME280;3567;52.444;13.556;2024-01-30T09:39:19;102451.16;;;5.32;89.17
7052;BME280;3567;52.444;13.556;2024-01-30T09:41:49;102452.25;;;5.39;88.85
7052;BME280;3567;52.444;13.556;2024-01-30T09:44:19;102451.81;;;5.44;88.13
7052;BME280;3567;52.444;13.556;2024-01-30T09:46:47;102444.22;;;5.49;87.00
7052;BME280;3567;52.444;13.556;2024-01-30T09:49:13;102440.94;;;5.55;87.35
7052;BME280;3567;52.444;13.556;2024-01-30T09:51:39;102441.13;;;5.62;87.34
7052;BME280;3567;52.444;13.556;2024-01-30T09:54:07;102446.00;;;5.66;86.45
7052;BME280;3567;52.444;13.556;2024-01-30T09:56:33;102437.56;;;5.71;86.56
7052;BME280;3567;52.444;13.556;2024-01-30T09:58:58;102436.78;;;5.78;85.94
7052;BME280;3567;52.444;13.556;2024-01-30T10:01:25;102432.34;;;5.87;85.27
7052;BME280;3567;52.444;13.556;2024-01-30T10:03:50;102443.75;;;5.97;84.97
7052;BME280;3567;52.444;13.556;2024-01-30T10:06:18;102436.34;;;6.09;83.88
7052;BME280;3567;52.444;13.556;2024-01-30T10:08:43;102439.88;;;6.18;83.47
7052;BME280;3567;52.444;13.556;2024-01-30T10:11:09;102440.28;;;6.31;83.28
7052;BME280;3567;52.444;13.556;2024-01-30T10:13:34;102426.69;;;6.42;83.11
7052;BME280;3567;52.444;13.556;2024-01-30T10:16:00;102420.91;;;6.55;81.66
7052;BME280;3567;52.444;13.556;2024-01-30T10:18:28;102420.78;;;6.65;81.29
7052;BME280;3567;52.444;13.556;2024-01-30T10:20:54;102426.81;;;6.75;81.51
7052;BME280;3567;52.444;13.556;2024-01-30T10:23:19;102422.03;;;6.87;80.90
7052;BME280;3567;52.444;13.556;2024-01-30T10:25:45;102417.38;;;6.97;79.80
7052;BME280;3567;52.444;13.556;2024-01-30T10:28:11;102416.41;;;7.06;79.50
7052;BME280;3567;52.444;13.556;2024-01-30T10:30:36;102412.78;;;7.15;79.93
7052;BME280;3567;52.444;13.556;2024-01-30T10:33:02;102416.25;;;7.24;79.20
7052;BME280;3567;52.444;13.556;2024-01-30T10:35:27;102404.09;;;7.29;77.72
7052;BME280;3567;52.444;13.556;2024-01-30T10:37:56;102403.59;;;7.34;77.36
7052;BME280;3567;52.444;13.556;2024-01-30T10:40:28;102401.13;;;7.41;76.78
7052;BME280;3567;52.444;13.556;2024-01-30T10:42:55;102399.44;;;7.48;76.58
7052;BME280;3567;52.444;13.556;2024-01-30T10:45:22;102400.94;;;7.58;75.83
7052;BME280;3567;52.444;13.556;2024-01-30T10:47:53;102398.44;;;7.65;75.25
7052;BME280;3567;52.444;13.556;2024-01-30T10:50:19;102403.44;;;7.68;73.85
7052;BME280;3567;52.444;13.556;2024-01-30T10:52:46;102396.91;;;7.71;72.80
7052;BME280;3567;52.444;13.556;2024-01-30T10:55:13;102403.09;;;7.71;73.00
7052;BME280;3567;52.444;13.556;2024-01-30T10:57:40;102394.56;;;7.76;72.30
7052;BME280;3567;52.444;13.556;2024-01-30T11:00:08;102393.25;;;7.80;71.49
7052;BME280;3567;52.444;13.556;2024-01-30T11:02:43;102395.88;;;7.88;72.60
7052;BME280;3567;52.444;13.556;2024-01-30T11:05:09;102381.06;;;7.94;70.81
7052;BME280;3567;52.444;13.556;2024-01-30T11:07:35;102395.56;;;7.99;71.59
7052;BME280;3567;52.444;13.556;2024-01-30T11:10:03;102392.34;;;8.04;71.51
7052;BME280;3567;52.444;13.556;2024-01-30T11:12:33;102385.00;;;8.06;70.16
7052;BME280;3567;52.444;13.556;2024-01-30T11:15:05;102388.34;;;8.08;70.31
7052;BME280;3567;52.444;13.556;2024-01-30T11:20:19;102371.16;;;8.02;70.15
7052;BME280;3567;52.444;13.556;2024-01-30T11:22:45;102383.69;;;8.02;70.62
7052;BME280;3567;52.444;13.556;2024-01-30T11:25:12;102370.53;;;8.00;69.17
7052;BME280;3567;52.444;13.556;2024-01-30T11:27:38;102371.69;;;7.98;69.24
7052;BME280;3567;52.444;13.556;2024-01-30T11:30:04;102369.69;;;8.00;69.33
7052;BME280;3567;52.444;13.556;2024-01-30T11:32:30;102376.69;;;8.01;69.78
7052;BME280;3567;52.444;13.556;2024-01-30T11:34:55;102371.34;;;8.01;69.09
7052;BME280;3567;52.444;13.556;2024-01-30T11:37:21;102371.34;;;8.01;68.87
7052;BME280;3567;52.444;13.556;2024-01-30T11:39:50;102372.69;;;8.05;69.57
7052;BME280;3567;52.444;13.556;2024-01-30T11:42:16;102360.00;;;8.07;68.78
7052;BME280;3567;52.444;13.556;2024-01-30T11:44:46;102358.13;;;8.16;68.91
7052;BME280;3567;52.444;13.556;2024-01-30T11:47:12;102367.09;;;8.23;68.98
7052;BME280;3567;52.444;13.556;2024-01-30T11:49:37;102364.38;;;8.31;68.95
7052;BME280;3567;52.444;13.556;2024-01-30T11:52:03;102365.03;;;8.41;69.23
7052;BME280;3567;52.444;13.556;2024-01-30T11:54:29;102362.16;;;8.51;68.91
7052;BME280;3567;52.444;13.556;2024-01-30T11:56:54;102365.81;;;8.58;68.63
7052;BME280;3567;52.444;13.556;2024-01-30T11:59:20;102362.25;;;8.65;68.51
7052;BME280;3567;52.444;13.556;2024-01-30T12:01:45;102356.50;;;8.77;68.33
7052;BME280;3567;52.444;13.556;2024-01-30T12:04:11;102357.00;;;8.80;68.25
7052;BME280;3567;52.444;13.556;2024-01-30T12:06:37;102359.97;;;8.85;68.23
7052;BME280;3567;52.444;13.556;2024-01-30T12:09:03;102350.75;;;8.88;68.03
7052;BME280;3567;52.444;13.556;2024-01-30T12:11:46;102350.59;;;8.89;68.42
7052;BME280;3567;52.444;13.556;2024-01-30T12:14:12;102357.34;;;9.00;68.36
7052;BME280;3567;52.444;13.556;2024-01-30T12:16:37;102347.13;;;9.04;67.98
7052;BME280;3567;52.444;13.556;2024-01-30T12:19:03;102349.78;;;9.04;67.60
7052;BME280;3567;52.444;13.556;2024-01-30T12:21:29;102342.97;;;9.01;67.27
7052;BME280;3567;52.444;13.556;2024-01-30T12:23:54;102344.81;;;9.01;67.85
7052;BME280;3567;52.444;13.556;2024-01-30T12:26:20;102338.28;;;9.03;68.55
7052;BME280;3567;52.444;13.556;2024-01-30T12:28:49;102337.44;;;9.03;67.78
7052;BME280;3567;52.444;13.556;2024-01-30T12:31:15;102345.94;;;9.06;68.38
7052;BME280;3567;52.444;13.556;2024-01-30T12:33:40;102333.75;;;9.04;67.85
7052;BME280;3567;52.444;13.556;2024-01-30T12:36:06;102329.44;;;9.03;68.27
7052;BME280;3567;52.444;13.556;2024-01-30T12:38:32;102330.06;;;9.05;68.75
7052;BME280;3567;52.444;13.556;2024-01-30T12:40:57;102323.06;;;9.04;68.13
7052;BME280;3567;52.444;13.556;2024-01-30T12:43:26;102317.19;;;9.08;68.39
7052;BME280;3567;52.444;13.556;2024-01-30T12:45:54;102308.09;;;9.17;68.87
7052;BME280;3567;52.444;13.556;2024-01-30T12:48:20;102305.03;;;9.21;68.08
7052;BME280;3567;52.444;13.556;2024-01-30T12:50:45;102301.53;;;9.20;68.44
7052;BME280;3567;52.444;13.556;2024-01-30T12:53:11;102297.69;;;9.23;68.31